createdAt,value
2022-12-08T00:00:13.147Z,0.98
2022-12-08T00:02:42.506Z,1.20
2022-12-08T00:05:29.322Z,1.23
2022-12-08T00:08:14.879Z,1.50
2022-12-08T00:10:49.915Z,1.10
2022-12-08T00:13:17.201Z,1.27
2022-12-08T00:15:44.093Z,1.10
2022-12-08T00:18:11.017Z,0.90
2022-12-08T00:20:37.941Z,0.90
2022-12-08T00:23:04.891Z,1.23
2022-12-08T00:25:35.264Z,1.33
2022-12-08T00:28:02.771Z,1.65
2022-12-08T00:30:29.717Z,1.25
2022-12-08T00:32:56.603Z,1.50
2022-12-08T00:35:23.517Z,1.60
2022-12-08T00:37:50.390Z,1.60
2022-12-08T00:40:17.379Z,1.08
2022-12-08T00:42:44.298Z,0.90
2022-12-08T00:45:11.738Z,1.40
2022-12-08T00:47:38.701Z,1.52
2022-12-08T00:50:06.818Z,1.20
2022-12-08T00:52:34.063Z,2.65
2022-12-08T00:55:00.988Z,1.42
2022-12-08T00:57:27.939Z,1.10
2022-12-08T00:59:54.895Z,1.42
2022-12-08T01:02:21.829Z,2.95
2022-12-08T01:04:48.748Z,1.37
2022-12-08T01:07:15.691Z,1.35
2022-12-08T01:09:42.969Z,1.20
2022-12-08T01:12:10.098Z,1.10
2022-12-08T01:14:37.306Z,0.80
2022-12-08T01:17:04.312Z,1.10
2022-12-08T01:19:31.363Z,1.08
2022-12-08T01:21:58.298Z,1.25
2022-12-08T01:24:25.246Z,1.80
2022-12-08T01:26:52.286Z,2.55
2022-12-08T01:29:19.302Z,1.40
2022-12-08T01:31:46.455Z,1.42
2022-12-08T01:34:13.419Z,1.33
2022-12-08T01:36:40.563Z,0.95
2022-12-08T01:39:10.600Z,1.67
2022-12-08T01:41:38.689Z,1.65
2022-12-08T01:44:08.901Z,2.00
2022-12-08T01:46:38.220Z,1.37
2022-12-08T01:49:12.771Z,1.58
2022-12-08T01:51:43.771Z,1.25
2022-12-08T01:54:12.216Z,1.30
2022-12-08T01:56:48.762Z,1.98
2022-12-08T01:59:16.700Z,1.33
2022-12-08T02:01:43.924Z,1.75
2022-12-08T02:04:10.987Z,1.30
2022-12-08T02:06:41.897Z,1.65
2022-12-08T02:09:09.097Z,2.12
2022-12-08T02:11:36.026Z,1.23
2022-12-08T02:14:06.511Z,1.17
2022-12-08T02:16:36.208Z,1.27
2022-12-08T02:19:31.945Z,1.37
2022-12-08T02:22:28.144Z,1.37
2022-12-08T02:25:13.539Z,1.50
2022-12-08T02:28:00.682Z,1.23
2022-12-08T02:30:27.661Z,1.20
2022-12-08T02:33:13.127Z,1.20
2022-12-08T02:35:45.937Z,1.92
2022-12-08T02:38:28.951Z,1.10
2022-12-08T02:41:43.991Z,1.70
2022-12-08T02:44:32.163Z,1.60
2022-12-08T02:47:25.272Z,1.25
2022-12-08T02:49:52.220Z,1.08
2022-12-08T02:52:19.090Z,1.33
2022-12-08T02:54:51.545Z,1.20
2022-12-08T02:57:51.597Z,1.45
2022-12-08T03:00:23.714Z,1.37
2022-12-08T03:03:26.453Z,1.10
2022-12-08T03:06:09.376Z,1.73
2022-12-08T03:08:46.281Z,1.20
2022-12-08T03:11:22.353Z,1.23
2022-12-08T03:13:55.867Z,1.12
2022-12-08T03:16:26.768Z,1.40
2022-12-08T03:19:01.592Z,1.37
2022-12-08T03:21:29.671Z,1.10
2022-12-08T03:23:58.051Z,1.95
2022-12-08T03:26:57.183Z,1.10
2022-12-08T03:29:25.327Z,1.20
2022-12-08T03:32:01.475Z,1.58
2022-12-08T03:34:30.547Z,1.75
2022-12-08T03:37:00.243Z,1.42
2022-12-08T03:39:27.185Z,2.55
2022-12-08T03:41:54.296Z,1.30
2022-12-08T03:44:21.243Z,1.40
2022-12-08T03:46:48.216Z,1.37
2022-12-08T03:49:15.108Z,1.33
2022-12-08T03:51:42.046Z,1.08
2022-12-08T03:54:08.999Z,1.00
2022-12-08T03:56:38.396Z,1.20
2022-12-08T03:59:06.540Z,1.10
2022-12-08T04:01:33.944Z,0.95
2022-12-08T04:04:00.888Z,1.25
2022-12-08T04:06:27.873Z,1.60
2022-12-08T04:08:55.006Z,1.50
2022-12-08T04:11:22.072Z,1.42
2022-12-08T04:13:49.223Z,1.35
2022-12-08T04:16:20.919Z,1.27
2022-12-08T04:18:48.231Z,1.30
2022-12-08T04:21:15.190Z,1.23
2022-12-08T04:23:42.668Z,1.40
2022-12-08T04:26:09.913Z,1.92
2022-12-08T04:28:37.293Z,1.30
2022-12-08T04:31:05.176Z,1.98
2022-12-08T04:33:32.664Z,1.10
2022-12-08T04:35:59.568Z,1.20
2022-12-08T04:38:28.455Z,1.92
2022-12-08T04:40:55.438Z,2.05
2022-12-08T04:43:22.393Z,1.05
2022-12-08T04:45:49.293Z,1.27
2022-12-08T04:48:16.294Z,2.12
2022-12-08T04:50:45.134Z,1.17
2022-12-08T04:53:12.595Z,1.45
2022-12-08T04:55:42.021Z,1.17
2022-12-08T04:58:13.368Z,1.45
2022-12-08T05:00:41.420Z,1.23
2022-12-08T05:03:08.477Z,1.92
2022-12-08T05:05:35.549Z,1.17
2022-12-08T05:08:02.530Z,1.15
2022-12-08T05:10:29.597Z,1.40
2022-12-08T05:12:57.798Z,1.00
2022-12-08T05:15:24.957Z,0.80
2022-12-08T05:17:52.141Z,0.88
2022-12-08T05:20:19.228Z,0.82
2022-12-08T05:22:46.134Z,0.80
2022-12-08T05:25:13.063Z,0.77
2022-12-08T05:27:39.999Z,0.80
2022-12-08T05:30:07.660Z,1.20
2022-12-08T05:32:34.721Z,0.75
2022-12-08T05:35:01.665Z,0.95
2022-12-08T05:37:28.575Z,1.65
2022-12-08T05:39:55.657Z,1.20
2022-12-08T05:42:24.914Z,0.52
2022-12-08T05:44:52.566Z,0.52
2022-12-08T05:47:19.911Z,0.50
2022-12-08T05:49:46.817Z,0.93
2022-12-08T05:52:13.761Z,0.77
2022-12-08T05:54:40.688Z,0.60
2022-12-08T05:57:07.577Z,1.23
2022-12-08T05:59:34.463Z,0.70
2022-12-08T06:02:01.459Z,0.60
2022-12-08T06:04:28.480Z,0.60
2022-12-08T06:06:55.811Z,0.60
2022-12-08T06:09:22.767Z,0.57
2022-12-08T06:11:49.729Z,0.65
2022-12-08T06:14:16.651Z,0.60
2022-12-08T06:16:43.676Z,0.40
2022-12-08T06:19:10.786Z,0.47
2022-12-08T06:21:37.731Z,0.55
2022-12-08T06:24:04.888Z,0.40
2022-12-08T06:26:31.800Z,0.20
2022-12-08T06:29:00.862Z,0.30
2022-12-08T06:31:28.537Z,0.30
2022-12-08T06:33:55.662Z,0.20
2022-12-08T06:36:26.351Z,0.20
2022-12-08T06:38:53.324Z,0.40
2022-12-08T06:41:20.238Z,0.32
2022-12-08T06:43:47.343Z,0.50
2022-12-08T06:46:16.725Z,0.82
2022-12-08T06:48:44.135Z,0.43
2022-12-08T06:51:16.484Z,0.43
2022-12-08T06:53:44.569Z,0.30
2022-12-08T06:56:12.289Z,0.20
2022-12-08T06:58:39.240Z,0.20
2022-12-08T07:01:09.217Z,1.23
2022-12-08T07:03:38.011Z,0.40
2022-12-08T07:06:06.039Z,0.98
2022-12-08T07:08:33.812Z,0.93
2022-12-08T07:11:06.095Z,0.50
2022-12-08T07:13:33.018Z,0.40
2022-12-08T07:15:59.997Z,0.40
2022-12-08T07:18:27.028Z,0.35
2022-12-08T07:20:53.991Z,0.43
2022-12-08T07:23:21.004Z,0.30
2022-12-08T07:25:47.964Z,0.22
2022-12-08T07:28:14.901Z,0.25
2022-12-08T07:30:41.945Z,0.30
2022-12-08T07:33:09.175Z,0.40
2022-12-08T07:35:36.187Z,0.22
2022-12-08T07:38:03.371Z,0.30
2022-12-08T07:40:30.307Z,0.20
2022-12-08T07:42:57.211Z,0.30
2022-12-08T07:45:29.852Z,0.40
2022-12-08T07:47:58.981Z,0.50
2022-12-08T07:50:25.893Z,0.52
2022-12-08T07:52:52.826Z,0.30
2022-12-08T07:55:19.777Z,0.47
2022-12-08T07:57:46.710Z,0.57
2022-12-08T08:00:14.392Z,0.62
2022-12-08T08:02:42.313Z,0.80
2022-12-08T08:05:09.942Z,0.40
2022-12-08T08:07:37.450Z,0.43
2022-12-08T08:10:05.671Z,0.40
2022-12-08T08:12:33.584Z,0.57
2022-12-08T08:15:01.984Z,0.90
2022-12-08T08:17:29.841Z,1.80
2022-12-08T08:19:57.128Z,0.90
2022-12-08T08:22:25.855Z,0.93
2022-12-08T08:24:53.502Z,0.98
2022-12-08T08:27:21.299Z,0.77
2022-12-08T08:29:48.357Z,0.60
2022-12-08T08:32:15.331Z,0.65
2022-12-08T08:34:42.235Z,0.85
2022-12-08T08:37:09.215Z,0.60
2022-12-08T08:39:36.368Z,0.62
2022-12-08T08:42:03.566Z,0.70
2022-12-08T08:44:30.552Z,0.60
2022-12-08T08:46:57.557Z,0.52
2022-12-08T08:49:24.623Z,0.50
2022-12-08T08:51:51.649Z,0.50
2022-12-08T08:54:18.605Z,0.40
2022-12-08T08:56:45.602Z,0.90
2022-12-08T08:59:12.593Z,1.40
2022-12-08T09:01:39.655Z,1.58
2022-12-08T09:04:06.720Z,1.30
2022-12-08T09:06:33.738Z,1.37
2022-12-08T09:09:00.679Z,1.23
2022-12-08T09:11:27.662Z,0.70
2022-12-08T09:13:55.181Z,0.65
2022-12-08T09:16:23.182Z,0.98
2022-12-08T09:18:50.484Z,1.00
2022-12-08T09:21:22.687Z,0.98
2022-12-08T09:23:58.279Z,0.80
2022-12-08T09:26:27.263Z,0.88
2022-12-08T09:28:55.622Z,1.00
2022-12-08T09:31:24.254Z,1.02
2022-12-08T09:33:52.458Z,0.90
2022-12-08T09:36:20.324Z,0.80
2022-12-08T09:38:47.929Z,2.40
2022-12-08T09:41:36.848Z,1.00
2022-12-08T09:44:43.240Z,1.45
2022-12-08T09:47:23.514Z,1.08
2022-12-08T09:50:02.675Z,1.50
2022-12-08T09:52:41.547Z,1.17
2022-12-08T09:55:38.275Z,1.25
2022-12-08T09:58:13.089Z,1.33
2022-12-08T10:00:40.137Z,1.48
2022-12-08T10:03:16.803Z,1.42
2022-12-08T10:06:24.066Z,1.70
2022-12-08T10:09:09.888Z,1.60
2022-12-08T10:12:02.881Z,1.33
2022-12-08T10:15:26.603Z,1.50
2022-12-08T10:17:54.611Z,1.58
2022-12-08T10:20:23.959Z,1.35
2022-12-08T10:23:04.621Z,1.80
2022-12-08T10:25:44.572Z,1.83
2022-12-08T10:28:12.291Z,1.50
2022-12-08T10:30:39.521Z,2.08
2022-12-08T10:33:14.426Z,1.87
2022-12-08T10:35:49.997Z,1.85
2022-12-08T10:38:21.911Z,2.10
2022-12-08T10:40:51.580Z,2.33
2022-12-08T10:43:24.337Z,1.62
2022-12-08T10:45:51.926Z,2.15
2022-12-08T10:48:23.847Z,1.75
2022-12-08T10:50:50.726Z,1.67
2022-12-08T10:53:31.273Z,1.98
2022-12-08T10:56:04.418Z,1.70
2022-12-08T10:58:40.991Z,2.08
2022-12-08T11:01:32.920Z,2.00
2022-12-08T11:04:05.292Z,1.77
2022-12-08T11:06:35.744Z,2.08
2022-12-08T11:09:07.117Z,2.40
2022-12-08T11:11:49.098Z,2.35
2022-12-08T11:14:22.776Z,2.03
2022-12-08T11:16:54.681Z,1.77
2022-12-08T11:19:29.632Z,2.10
2022-12-08T11:21:56.655Z,2.17
2022-12-08T11:24:32.297Z,1.83
2022-12-08T11:27:05.547Z,2.58
2022-12-08T11:29:34.580Z,1.30
2022-12-08T11:32:11.768Z,1.55
2022-12-08T11:34:41.799Z,1.40
2022-12-08T11:37:23.582Z,1.50
2022-12-08T11:39:53.698Z,1.60
2022-12-08T11:42:26.496Z,1.70
2022-12-08T11:45:12.777Z,1.87
2022-12-08T11:47:55.947Z,1.90
2022-12-08T11:50:31.727Z,1.45
2022-12-08T11:52:59.966Z,1.50
2022-12-08T11:55:45.189Z,1.70
2022-12-08T11:58:35.578Z,1.77
2022-12-08T12:01:03.080Z,1.92
2022-12-08T12:03:44.799Z,1.58
2022-12-08T12:06:55.153Z,2.03
2022-12-08T12:09:44.034Z,1.98
2022-12-08T12:12:13.853Z,1.83
2022-12-08T12:15:05.836Z,2.37
2022-12-08T12:17:53.798Z,4.05
2022-12-08T12:20:48.874Z,2.50
2022-12-08T12:23:26.617Z,3.10
2022-12-08T12:26:00.310Z,1.60
2022-12-08T12:28:40.035Z,2.03
2022-12-08T12:31:11.414Z,2.15
2022-12-08T12:33:38.643Z,1.65
2022-12-08T12:36:09.056Z,1.62
2022-12-08T12:38:57.847Z,2.00
2022-12-08T12:41:32.937Z,1.80
2022-12-08T12:44:14.789Z,1.45
2022-12-08T12:46:50.195Z,1.80
2022-12-08T12:49:39.006Z,2.15
2022-12-08T12:52:24.201Z,2.33
2022-12-08T12:54:51.126Z,2.58
2022-12-08T12:57:33.597Z,2.35
2022-12-08T13:00:00.849Z,3.20
2022-12-08T13:02:46.160Z,2.70
2022-12-08T13:05:21.252Z,2.85
2022-12-08T13:08:23.822Z,2.87
2022-12-08T13:11:00.859Z,3.00
2022-12-08T13:13:28.456Z,4.40
2022-12-08T13:16:19.278Z,3.35
2022-12-08T13:18:52.508Z,2.95
2022-12-08T13:21:21.870Z,4.53
2022-12-08T13:24:10.167Z,3.87
2022-12-08T13:27:05.292Z,3.85
2022-12-08T13:29:37.437Z,2.83
2022-12-08T13:32:10.317Z,3.03
2022-12-08T13:34:57.802Z,2.87
2022-12-08T13:37:53.934Z,3.60
2022-12-08T13:40:25.489Z,4.85
2022-12-08T13:43:08.771Z,2.92
2022-12-08T13:46:34.666Z,3.30
2022-12-08T13:57:28.800Z,2.42
2022-12-08T14:00:05.156Z,3.37
2022-12-08T14:02:47.124Z,2.97
2022-12-08T14:05:18.582Z,2.67
2022-12-08T14:07:49.734Z,2.87
2022-12-08T14:10:21.616Z,3.12
2022-12-08T14:12:55.659Z,2.45
2022-12-08T14:15:25.194Z,2.50
2022-12-08T14:17:57.193Z,2.83
2022-12-08T14:20:29.866Z,1.80
2022-12-08T14:22:59.065Z,3.20
2022-12-08T14:25:28.164Z,2.45
2022-12-08T14:28:04.725Z,1.77
2022-12-08T14:30:32.976Z,2.30
2022-12-08T14:33:02.210Z,1.92
2022-12-08T14:35:37.217Z,1.70
2022-12-08T14:38:14.768Z,1.95
2022-12-08T14:40:44.125Z,1.70
2022-12-08T14:43:12.461Z,2.40
2022-12-08T14:45:39.491Z,2.95
2022-12-08T14:48:38.968Z,2.10
2022-12-08T14:51:26.224Z,2.10
2022-12-08T14:54:15.446Z,2.05
2022-12-08T14:56:53.294Z,2.65
2022-12-08T14:59:23.149Z,1.60
2022-12-08T15:01:52.942Z,2.95
2022-12-08T15:04:25.302Z,2.60
2022-12-08T15:07:01.761Z,1.52
2022-12-08T15:09:48.725Z,1.58
2022-12-08T15:12:15.846Z,2.35
2022-12-08T15:14:54.585Z,2.10
2022-12-08T15:17:41.622Z,2.42
2022-12-08T15:20:51.720Z,1.35
2022-12-08T15:23:26.232Z,1.75
2022-12-08T15:25:54.923Z,1.25
2022-12-08T15:28:29.663Z,1.67
2022-12-08T15:30:57.971Z,2.05
2022-12-08T15:33:25.332Z,2.10
2022-12-08T15:35:52.903Z,2.03
2022-12-08T15:38:24.875Z,1.80
2022-12-08T15:40:56.057Z,1.50
2022-12-08T15:43:23.120Z,1.85
2022-12-08T15:45:59.891Z,1.75
2022-12-08T15:48:30.795Z,1.37
2022-12-08T15:50:58.546Z,1.27
2022-12-08T15:53:25.810Z,1.48
2022-12-08T15:56:25.718Z,1.12
2022-12-08T15:58:56.462Z,1.55
2022-12-08T16:01:24.423Z,2.65
2022-12-08T16:09:39.185Z,1.65
2022-12-08T16:13:13.541Z,1.45
2022-12-08T16:18:07.713Z,1.48
2022-12-08T16:23:41.526Z,2.45
2022-12-08T16:27:21.901Z,1.50
2022-12-08T16:29:05.319Z,1.55
2022-12-08T16:31:32.811Z,2.50
2022-12-08T16:33:59.854Z,1.77
2022-12-08T16:36:26.809Z,1.98
2022-12-08T16:38:53.939Z,1.90
2022-12-08T16:41:39.404Z,2.47
2022-12-08T16:44:06.666Z,2.97
2022-12-08T16:46:34.873Z,2.58
2022-12-08T16:49:02.161Z,3.20
2022-12-08T16:51:29.119Z,3.10
2022-12-08T16:53:59.530Z,2.97
2022-12-08T16:56:32.574Z,2.55
2022-12-08T16:59:01.979Z,2.30
2022-12-08T17:01:29.261Z,2.20
2022-12-08T17:06:43.163Z,1.85
2022-12-08T17:09:10.071Z,1.70
2022-12-08T17:11:42.953Z,1.37
2022-12-08T17:14:12.214Z,2.47
2022-12-08T17:16:39.344Z,2.30
2022-12-08T17:19:06.334Z,2.22
2022-12-08T17:21:33.273Z,3.80
2022-12-08T17:24:00.268Z,2.03
2022-12-08T17:26:27.194Z,2.17
2022-12-08T17:29:01.874Z,2.65
2022-12-08T17:31:31.510Z,1.92
2022-12-08T17:34:00.792Z,2.05
2022-12-08T17:36:27.769Z,2.87
2022-12-08T17:38:55.140Z,1.90
2022-12-08T17:41:22.031Z,3.00
2022-12-08T17:43:48.952Z,2.67
2022-12-08T17:46:20.355Z,2.20
2022-12-08T17:48:47.678Z,1.55
2022-12-08T17:51:15.315Z,2.05
2022-12-08T17:53:42.320Z,3.28
2022-12-08T17:56:18.180Z,1.87
2022-12-08T17:58:47.592Z,1.45
2022-12-08T18:01:18.167Z,2.42
2022-12-08T18:03:45.235Z,2.05
2022-12-08T18:06:13.046Z,1.90
2022-12-08T18:08:40.522Z,2.08
2022-12-08T18:11:17.366Z,1.67
2022-12-08T18:13:45.459Z,1.77
2022-12-08T18:16:12.818Z,2.20
2022-12-08T18:18:40.216Z,1.65
2022-12-08T18:21:07.956Z,2.42
2022-12-08T18:23:37.671Z,1.80
2022-12-08T18:26:06.676Z,2.45
2022-12-08T18:28:34.058Z,2.45
2022-12-08T18:31:01.352Z,1.70
2022-12-08T18:33:28.555Z,2.12
2022-12-08T18:35:55.553Z,1.95
2022-12-08T18:38:22.481Z,2.55
2022-12-08T18:40:49.393Z,2.72
2022-12-08T18:43:16.344Z,2.45
2022-12-08T18:45:43.335Z,1.55
2022-12-08T18:48:10.348Z,1.70
2022-12-08T18:50:37.386Z,1.87
2022-12-08T18:53:04.282Z,2.22
2022-12-08T18:55:31.220Z,1.48
2022-12-08T18:57:58.151Z,1.60
2022-12-08T19:00:25.147Z,1.55
2022-12-08T19:02:52.140Z,1.60
2022-12-08T19:05:19.225Z,1.35
2022-12-08T19:07:46.630Z,1.60
2022-12-08T19:10:13.719Z,1.77
2022-12-08T19:12:40.864Z,2.30
2022-12-08T19:15:08.723Z,1.67
2022-12-08T19:17:35.866Z,2.35
2022-12-08T19:20:03.051Z,1.60
2022-12-08T19:22:30.096Z,1.45
2022-12-08T19:24:57.019Z,1.48
2022-12-08T19:27:24.652Z,1.50
2022-12-08T19:29:51.615Z,1.30
2022-12-08T19:32:18.648Z,1.50
2022-12-08T19:34:45.629Z,1.12
2022-12-08T19:37:13.059Z,1.30
2022-12-08T19:39:59.056Z,1.73
2022-12-08T19:42:45.045Z,1.80
2022-12-08T19:45:21.277Z,1.40
2022-12-08T19:50:36.439Z,1.15
2022-12-08T19:53:07.579Z,1.87
2022-12-08T19:55:34.605Z,1.40
2022-12-08T19:58:02.002Z,1.35
2022-12-08T20:00:30.620Z,1.23
2022-12-08T20:02:59.835Z,0.98
2022-12-08T20:05:26.842Z,1.58
2022-12-08T20:07:56.315Z,1.35
2022-12-08T20:10:35.330Z,1.58
2022-12-08T20:13:22.683Z,1.42
2022-12-08T20:15:50.871Z,1.52
2022-12-08T20:18:18.499Z,2.17
2022-12-08T20:20:46.454Z,1.30
2022-12-08T20:23:14.432Z,1.25
2022-12-08T20:25:43.085Z,1.40
2022-12-08T20:28:10.384Z,1.50
2022-12-08T20:30:41.568Z,1.42
2022-12-08T20:33:09.976Z,1.30
2022-12-08T20:35:36.894Z,1.20
2022-12-08T20:38:04.057Z,1.50
2022-12-08T20:40:31.012Z,1.60
2022-12-08T20:42:58.154Z,1.25
2022-12-08T20:45:25.797Z,1.25
2022-12-08T20:47:53.010Z,2.12
2022-12-08T20:50:20.168Z,1.08
2022-12-08T20:52:47.239Z,0.93
2022-12-08T20:55:14.262Z,2.60
2022-12-08T20:57:41.276Z,1.17
2022-12-08T21:00:09.201Z,1.52
2022-12-08T21:02:41.705Z,1.42
2022-12-08T21:05:12.382Z,1.35
2022-12-08T21:07:39.484Z,1.55
2022-12-08T21:10:07.462Z,1.00
2022-12-08T21:12:34.686Z,1.45
2022-12-08T21:15:01.938Z,1.20
2022-12-08T21:17:29.034Z,3.00
2022-12-08T21:19:56.323Z,1.50
2022-12-08T21:22:23.291Z,1.60
2022-12-08T21:24:50.422Z,1.95
2022-12-08T21:27:17.395Z,1.40
2022-12-08T21:29:44.539Z,1.23
2022-12-08T21:32:11.618Z,1.73
2022-12-08T21:34:38.821Z,1.58
2022-12-08T21:37:05.888Z,1.60
2022-12-08T21:39:32.822Z,1.40
2022-12-08T21:42:21.500Z,1.10
2022-12-08T21:44:49.894Z,1.00
2022-12-08T21:47:16.864Z,0.98
2022-12-08T21:49:44.141Z,0.88
2022-12-08T21:52:11.053Z,1.20
2022-12-08T21:54:38.138Z,1.40
2022-12-08T21:57:05.226Z,1.25
2022-12-08T21:59:32.876Z,1.12
2022-12-08T22:02:00.037Z,1.45
2022-12-08T22:04:27.171Z,1.00
2022-12-08T22:06:54.209Z,1.00
2022-12-08T22:09:21.536Z,1.02
2022-12-08T22:11:48.614Z,1.27
2022-12-08T22:14:15.642Z,1.20
2022-12-08T22:16:43.821Z,1.70
2022-12-08T22:19:11.374Z,1.10
2022-12-08T22:21:38.511Z,1.30
2022-12-08T22:24:06.194Z,1.17
2022-12-08T22:26:33.530Z,1.12
2022-12-08T22:29:00.664Z,1.00
2022-12-08T22:31:28.418Z,1.90
2022-12-08T22:33:55.879Z,1.00
2022-12-08T22:36:27.464Z,1.12
2022-12-08T22:38:54.950Z,1.12
2022-12-08T22:41:22.444Z,1.02
2022-12-08T22:43:50.271Z,1.00
2022-12-08T22:46:25.957Z,1.12
2022-12-08T22:48:54.202Z,1.00
2022-12-08T22:51:21.489Z,1.20
2022-12-08T22:53:48.599Z,0.90
2022-12-08T22:56:16.626Z,0.90
2022-12-08T22:58:44.492Z,1.17
2022-12-08T23:01:26.249Z,0.93
2022-12-08T23:03:54.039Z,0.80
2022-12-08T23:06:21.720Z,1.25
2022-12-08T23:08:49.198Z,1.20
2022-12-08T23:11:16.435Z,1.30
2022-12-08T23:13:43.810Z,0.90
2022-12-08T23:16:12.104Z,1.05
2022-12-08T23:18:44.513Z,1.37
2022-12-08T23:21:16.921Z,0.90
2022-12-08T23:23:44.678Z,0.90
2022-12-08T23:26:20.854Z,0.88
2022-12-08T23:28:48.249Z,0.82
2022-12-08T23:31:16.052Z,0.80
2022-12-08T23:33:43.629Z,0.90
2022-12-08T23:36:11.962Z,0.68
2022-12-08T23:38:39.035Z,1.08
2022-12-08T23:41:07.765Z,0.82
2022-12-08T23:43:35.334Z,0.88
2022-12-08T23:46:02.804Z,0.90
2022-12-08T23:48:34.470Z,0.70
2022-12-08T23:51:01.975Z,0.77
2022-12-08T23:53:33.199Z,0.75
2022-12-08T23:56:01.873Z,0.60
2022-12-08T23:58:30.869Z,0.60
